Terminal Aerodrome Forecast
Issued by NWS Des Moines, IA

Home | Current Version | Previous Version | Text Only | Print | Product List | Glossary On
Versions: 1 2 3 4 5 6 7 8 9 10 11 12 13 14 15 16 17 18 19 20 21 22 23 24 25 26 27 28 29 30 31 32 33 34 35 36 37 38 39 40 41 42 43 44 45 46 47 48 49 50
000
FTUS43 KDMX 221739
TAFALO
TAF
KALO 221739Z 2218/2318 12012KT 5SM -RA BR BKN020
     FM221900 11012KT 2SM -RA BR OVC009
     FM230500 07010KT 2SM -RA BR OVC004
     FM231200 03008KT 2SM -RASN BR OVC003=

USA.gov is the U.S. government's official web portal to all federal, state and local government web resources and services.